Overview Statistics Trail Chart Weather Telemetry Raw packets
 

This is the latest recevied weather packets stored in our database for station/object HP1COO-13. If no packets are shown the sender has not sent any weather packets the latest 10 day(s).

<< 33 34 35 36 37 38 39 >>
Time Temp. Humidity Pressure Rain* Wind** Luminosity Snow
1788118189 32.22° C 75% 1006.5 hPa 0 mm - - -
1788117557 32.22° C 73% 1006.6 hPa 0 mm - - -
1788116290 32.22° C 73% 1006.6 hPa 0 mm - - -
1788115657 32.22° C 73% 1006.8 hPa 0 mm - - -
1788115024 31.67° C 75% 1007.2 hPa 0 mm - - -
1788114391 32.22° C 74% 1007 hPa 0 mm - - -
1788113911 33.33° C 69% 1007 hPa 0 mm - - -
1788113671 32.78° C 70% 1006.9 hPa 0 mm - - -
1788113551 32.78° C 70% 1007.1 hPa 0 mm - - -
1788113116 32.78° C 72% 1007.1 hPa 0 mm - - -
1788112483 32.78° C 70% 1007.3 hPa 0 mm - - -
1788111850 32.78° C 71% 1007.4 hPa 0 mm - - -
1788111217 32.78° C 70% 1007.6 hPa 0 mm - - -
1788110584 32.22° C 71% 1008 hPa 0 mm - - -
1788109951 31.67° C 74% 1008.1 hPa 0 mm - - -
1788109318 31.67° C 74% 1008.3 hPa 0 mm - - -
1788108685 31.11° C 74% 1008.7 hPa 0 mm - - -
1788108052 31.11° C 76% 1008.7 hPa 0 mm - - -
1788107419 31.11° C 75% 1009 hPa 0 mm - - -
1788106786 30.56° C 77% 1009.3 hPa 0 mm - - -
1788105520 30.56° C 77% 1009.6 hPa 0 mm - - -
1788104887 30° C 79% 1009.6 hPa 0 mm - - -
1788104254 30° C 79% 1009.6 hPa 0 mm - - -
1788103621 29.44° C 80% 1009.6 hPa 0 mm - - -
1788103000 29.44° C 79% 1009.7 hPa 0 mm - - -

* Rain latest hour (hover to see other rain measurements)
** Current wind speed in m/s (hover to see current wind gust speed)